Time;durP1;ratioP1;P1;durP2;ratioP2;P2;SDS_P1;SDS_P2;PMS_P1;PMS_P2;Temp;Humidity;BMP_temperature;BMP_pressure;BME280_temperature;BME280_humidity;BME280_pressure;Samples;Min_cycle;Max_cycle;Signal;HPM_P1;HPM_P2
2023/11/13 00:04:35;;;;;;;4.43;2.00;;;;;;;;;;10540036;28;20401;-74
2023/11/13 00:09:38;;;;;;;3.78;1.92;;;;;;;;;;10540883;27;20070;-74
2023/11/13 00:14:42;;;;;;;4.75;2.03;;;;;;;;;;10536008;27;20071;-75
2023/11/13 00:19:48;;;;;;;6.07;2.83;;;;;;;;;;10523107;27;20476;-74
2023/11/13 00:24:59;;;;;;;3.87;2.50;;;;;;;;;;10539960;27;20404;-74
2023/11/13 00:30:03;;;;;;;6.20;2.65;;;;;;;;;;10520214;28;20062;-74
2023/11/13 00:35:13;;;;;;;6.70;2.88;;;;;;;;;;10527712;27;20039;-74
2023/11/13 00:40:18;;;;;;;5.15;2.78;;;;;;;;;;10533412;27;20474;-74
2023/11/13 00:45:23;;;;;;;7.53;3.25;;;;;;;;;;10542157;27;20575;-73
2023/11/13 00:50:33;;;;;;;5.95;3.05;;;;;;;;;;10531399;27;20044;-74
2023/11/13 00:55:39;;;;;;;5.80;3.13;;;;;;;;;;10535301;28;20132;-74
2023/11/13 01:00:43;;;;;;;6.82;3.20;;;;;;;;;;10536800;27;20085;-74
2023/11/13 01:05:46;;;;;;;;;;;;;;;;;;10534691;28;20046;-75
2023/11/13 01:10:53;;;;;;;6.65;3.20;;;;;;;;;;10530733;28;20305;-74
2023/11/13 01:15:58;;;;;;;7.25;3.10;;;;;;;;;;10540649;28;20044;-73
2023/11/13 01:21:05;;;;;;;7.22;2.78;;;;;;;;;;10527400;27;20055;-74
2023/11/13 01:26:12;;;;;;;9.65;3.97;;;;;;;;;;10514207;28;20448;-73
2023/11/13 01:31:19;;;;;;;9.05;3.67;;;;;;;;;;10532326;28;20047;-74
2023/11/13 01:36:23;;;;;;;8.40;3.55;;;;;;;;;;10516010;28;20122;-74
2023/11/13 01:41:35;;;;;;;6.65;3.25;;;;;;;;;;10532888;28;20055;-74
2023/11/13 01:46:38;;;;;;;6.80;3.05;;;;;;;;;;10533310;28;20051;-75
2023/11/13 01:51:42;;;;;;;;;;;;;;;;;;10531834;28;20097;-75
2023/11/13 01:56:50;;;;;;;6.70;3.13;;;;;;;;;;10532365;28;20428;-72
2023/11/13 02:01:53;;;;;;;8.77;3.17;;;;;;;;;;10533446;28;20126;-73
2023/11/13 02:06:56;;;;;;;8.20;3.37;;;;;;;;;;10536995;28;20054;-73
2023/11/13 02:12:05;;;;;;;5.77;2.80;;;;;;;;;;10550050;27;20032;-74
2023/11/13 02:17:14;;;;;;;7.70;3.50;;;;;;;;;;10518820;28;20043;-74
2023/11/13 02:22:17;;;;;;;7.55;3.50;;;;;;;;;;10531764;28;20046;-74
2023/11/13 02:27:22;;;;;;;;;;;;;;;;;;10536150;28;20056;-74
2023/11/13 02:32:28;;;;;;;7.75;3.20;;;;;;;;;;10513009;28;19930;-74
2023/11/13 02:37:43;;;;;;;6.85;2.75;;;;;;;;;;10528993;28;20050;-75
2023/11/13 02:42:47;;;;;;;4.18;2.58;;;;;;;;;;10537723;28;20036;-75
2023/11/13 02:47:52;;;;;;;10.33;4.20;;;;;;;;;;10515801;27;20051;-74
2023/11/13 02:52:56;;;;;;;8.55;3.33;;;;;;;;;;10516863;28;20047;-74
2023/11/13 02:58:00;;;;;;;7.90;3.42;;;;;;;;;;10522115;28;20081;-74
2023/11/13 03:03:07;;;;;;;2.63;1.73;;;;;;;;;;10544755;27;20573;-74
2023/11/13 03:08:11;;;;;;;8.13;3.90;;;;;;;;;;10539113;27;20505;-74
2023/11/13 03:13:15;;;;;;;9.65;3.75;;;;;;;;;;10538982;27;20748;-74
2023/11/13 03:18:18;;;;;;;;;;;;;;;;;;10543783;27;20040;-74
2023/11/13 03:23:24;;;;;;;9.15;2.92;;;;;;;;;;10558070;27;19927;-73
2023/11/13 03:28:27;;;;;;;8.88;3.72;;;;;;;;;;10553560;27;20573;-74
2023/11/13 03:33:32;;;;;;;8.03;4.00;;;;;;;;;;10504579;28;20358;-74
2023/11/13 03:38:38;;;;;;;7.80;3.30;;;;;;;;;;10530383;28;20047;-74
2023/11/13 03:43:42;;;;;;;5.32;2.45;;;;;;;;;;10538996;28;20438;-74
2023/11/13 03:48:46;;;;;;;5.88;2.53;;;;;;;;;;10543917;27;20112;-74
2023/11/13 03:53:52;;;;;;;5.07;2.10;;;;;;;;;;10529208;28;20523;-74
2023/11/13 03:58:58;;;;;;;6.85;3.03;;;;;;;;;;10541208;28;20150;-75
2023/11/13 04:04:05;;;;;;;7.03;2.75;;;;;;;;;;10508359;28;20048;-74
2023/11/13 04:09:12;;;;;;;5.80;2.72;;;;;;;;;;10527056;28;20631;-73
2023/11/13 04:14:16;;;;;;;3.78;1.88;;;;;;;;;;10518010;28;20042;-74
2023/11/13 04:19:20;;;;;;;7.57;2.55;;;;;;;;;;10522931;28;20070;-74
2023/11/13 04:24:25;;;;;;;6.43;2.40;;;;;;;;;;10539721;28;20047;-74
2023/11/13 04:29:29;;;;;;;6.07;2.17;;;;;;;;;;10536595;27;20054;-74
2023/11/13 04:34:32;;;;;;;;;;;;;;;;;;10533676;28;20040;-74
2023/11/13 04:39:39;;;;;;;4.93;2.25;;;;;;;;;;10535214;28;19981;-76
2023/11/13 04:44:42;;;;;;;7.15;2.33;;;;;;;;;;10537571;27;20073;-76
2023/11/13 04:49:53;;;;;;;4.95;2.53;;;;;;;;;;10537292;28;20056;-74
2023/11/13 04:55:00;;;;;;;4.60;1.73;;;;;;;;;;10520628;28;20431;-74
2023/11/13 05:00:05;;;;;;;6.40;2.13;;;;;;;;;;10519755;28;20488;-75
2023/11/13 05:05:11;;;;;;;2.40;0.85;;;;;;;;;;10521761;28;20040;-74
2023/11/13 05:10:17;;;;;;;1.13;0.80;;;;;;;;;;10532878;28;20039;-74
2023/11/13 05:15:21;;;;;;;3.58;1.30;;;;;;;;;;10535978;28;20040;-73
2023/11/13 05:20:25;;;;;;;4.73;1.57;;;;;;;;;;10519589;28;20043;-74
2023/11/13 05:25:30;;;;;;;2.50;0.60;;;;;;;;;;10536553;27;20132;-74
2023/11/13 05:30:34;;;;;;;4.88;1.20;;;;;;;;;;10542104;27;20418;-74
2023/11/13 05:35:50;;;;;;;5.63;1.05;;;;;;;;;;10534956;28;20036;-74
2023/11/13 05:40:56;;;;;;;5.72;1.45;;;;;;;;;;10530723;28;20052;-74
2023/11/13 05:46:02;;;;;;;5.35;1.17;;;;;;;;;;10538703;28;20036;-74
2023/11/13 05:51:06;;;;;;;5.60;1.05;;;;;;;;;;10535331;28;20057;-74
2023/11/13 05:56:10;;;;;;;4.10;0.97;;;;;;;;;;10523925;28;20046;-74
2023/11/13 06:01:19;;;;;;;2.88;1.02;;;;;;;;;;10541108;28;20088;-74
2023/11/13 06:06:23;;;;;;;6.65;1.15;;;;;;;;;;10526058;28;20112;-74
2023/11/13 06:11:26;;;;;;;;;;;;;;;;;;10534037;28;20055;-74
2023/11/13 06:16:33;;;;;;;5.43;0.95;;;;;;;;;;10543275;28;19931;-74
2023/11/13 06:21:38;;;;;;;1.85;0.60;;;;;;;;;;10528749;28;20052;-73
2023/11/13 06:26:42;;;;;;;2.90;0.53;;;;;;;;;;10558691;27;20046;-74
2023/11/13 06:31:48;;;;;;;4.20;0.73;;;;;;;;;;10541631;27;20148;-74
2023/11/13 06:36:53;;;;;;;9.25;1.10;;;;;;;;;;10541796;27;20052;-73
2023/11/13 06:41:59;;;;;;;6.78;1.55;;;;;;;;;;10547950;27;20074;-75
2023/11/13 06:47:05;;;;;;;4.70;1.13;;;;;;;;;;10539727;28;20058;-75
2023/11/13 06:52:13;;;;;;;4.13;0.90;;;;;;;;;;10542520;28;20070;-74
2023/11/13 06:57:17;;;;;;;2.83;0.77;;;;;;;;;;10553006;27;20134;-74
2023/11/13 07:02:26;;;;;;;2.20;0.57;;;;;;;;;;10535487;28;20631;-75
2023/11/13 07:07:31;;;;;;;1.25;0.70;;;;;;;;;;10543244;28;20044;-74
2023/11/13 07:12:35;;;;;;;5.38;0.73;;;;;;;;;;10533844;28;20530;-75
2023/11/13 07:17:41;;;;;;;2.22;0.63;;;;;;;;;;10536640;27;20048;-74
2023/11/13 07:22:50;;;;;;;1.30;0.57;;;;;;;;;;10532271;28;20042;-75
2023/11/13 07:27:53;;;;;;;2.97;0.85;;;;;;;;;;10534847;27;20044;-74
2023/11/13 07:33:01;;;;;;;2.88;0.60;;;;;;;;;;10532218;28;20433;-75
2023/11/13 07:38:09;;;;;;;0.75;0.40;;;;;;;;;;10531951;27;20054;-75
2023/11/13 07:43:16;;;;;;;1.90;0.50;;;;;;;;;;10532545;27;20124;-75
2023/11/13 07:48:24;;;;;;;1.10;0.70;;;;;;;;;;10532459;27;20132;-74
2023/11/13 07:53:28;;;;;;;1.65;1.00;;;;;;;;;;10517839;27;20048;-76
2023/11/13 07:58:31;;;;;;;2.45;0.68;;;;;;;;;;10534807;27;20143;-74
2023/11/13 08:03:37;;;;;;;1.25;0.57;;;;;;;;;;10535138;27;20040;-74
2023/11/13 08:08:41;;;;;;;4.03;0.60;;;;;;;;;;10533696;27;20043;-74
2023/11/13 08:13:45;;;;;;;;;;;;;;;;;;10514460;28;20413;-74
2023/11/13 08:18:52;;;;;;;3.00;1.08;;;;;;;;;;10529874;28;19959;-75
2023/11/13 08:24:04;;;;;;;0.70;0.40;;;;;;;;;;10512486;28;20439;-73
2023/11/13 08:29:09;;;;;;;3.38;0.50;;;;;;;;;;10536977;28;20544;-72
2023/11/13 08:34:16;;;;;;;3.30;0.47;;;;;;;;;;10514324;28;20046;-74
2023/11/13 08:39:22;;;;;;;5.07;1.08;;;;;;;;;;10531859;28;20062;-74
2023/11/13 08:44:29;;;;;;;1.65;0.60;;;;;;;;;;10514873;28;20500;-74
2023/11/13 08:49:46;;;;;;;0.82;0.68;;;;;;;;;;10515730;27;20061;-74
2023/11/13 08:54:51;;;;;;;2.88;0.60;;;;;;;;;;10522006;28;20070;-74
2023/11/13 08:59:57;;;;;;;0.30;0.30;;;;;;;;;;10530025;27;20059;-76
2023/11/13 09:05:04;;;;;;;3.88;0.73;;;;;;;;;;10512644;28;20052;-75
2023/11/13 09:10:12;;;;;;;0.90;0.55;;;;;;;;;;10535392;27;20062;-74
2023/11/13 09:15:17;;;;;;;1.45;0.40;;;;;;;;;;10510985;28;20534;-75
2023/11/13 09:20:26;;;;;;;1.23;0.35;;;;;;;;;;10515614;28;20040;-74
2023/11/13 09:25:37;;;;;;;2.67;0.88;;;;;;;;;;10538939;27;20044;-75
2023/11/13 09:30:43;;;;;;;2.08;0.60;;;;;;;;;;10524088;28;20043;-75
2023/11/13 09:35:57;;;;;;;1.08;0.70;;;;;;;;;;10498931;28;20537;-75
2023/11/13 09:41:03;;;;;;;2.63;1.10;;;;;;;;;;10535878;28;20055;-75
2023/11/13 09:46:10;;;;;;;4.68;1.00;;;;;;;;;;10532641;28;20580;-73
2023/11/13 09:51:19;;;;;;;3.78;0.77;;;;;;;;;;10527827;28;20044;-74
2023/11/13 09:56:38;;;;;;;2.05;1.27;;;;;;;;;;10553583;27;20562;-74
2023/11/13 10:01:44;;;;;;;1.63;0.90;;;;;;;;;;10544129;27;20117;-74
2023/11/13 10:07:02;;;;;;;2.10;1.70;;;;;;;;;;10538414;28;20475;-75
2023/11/13 10:12:09;;;;;;;1.83;0.90;;;;;;;;;;10525188;27;20051;-76
2023/11/13 10:17:12;;;;;;;0.80;0.43;;;;;;;;;;10538309;27;20040;-75
2023/11/13 10:22:16;;;;;;;;;;;;;;;;;;10536917;28;20138;-74
2023/11/13 10:27:25;;;;;;;2.78;0.90;;;;;;;;;;10554406;27;19920;-73
2023/11/13 10:32:31;;;;;;;1.95;1.05;;;;;;;;;;10543502;27;20051;-73
2023/11/13 10:37:38;;;;;;;1.55;0.50;;;;;;;;;;10538352;27;20527;-73
2023/11/13 10:42:49;;;;;;;2.08;0.85;;;;;;;;;;10539216;27;20151;-73
2023/11/13 10:47:53;;;;;;;2.60;0.75;;;;;;;;;;10541242;28;20040;-73
2023/11/13 10:52:59;;;;;;;2.58;1.05;;;;;;;;;;10541137;27;20043;-73
2023/11/13 10:58:10;;;;;;;0.22;0.22;;;;;;;;;;10538667;28;20459;-74
2023/11/13 11:03:17;;;;;;;0.98;0.60;;;;;;;;;;10523689;28;20725;-74
2023/11/13 11:08:23;;;;;;;1.42;0.43;;;;;;;;;;10552273;27;20055;-75
2023/11/13 11:13:30;;;;;;;0.45;0.45;;;;;;;;;;10541311;28;20472;-73
2023/11/13 11:18:39;;;;;;;1.23;0.50;;;;;;;;;;10521289;28;20144;-73
2023/11/13 11:23:46;;;;;;;2.58;0.55;;;;;;;;;;10550674;27;20048;-73
2023/11/13 11:28:54;;;;;;;1.95;0.40;;;;;;;;;;10529040;28;20058;-74
2023/11/13 11:33:58;;;;;;;1.77;1.00;;;;;;;;;;10515544;27;20125;-75
2023/11/13 11:39:18;;;;;;;2.00;0.50;;;;;;;;;;10542832;27;20039;-74
2023/11/13 11:44:27;;;;;;;3.40;0.88;;;;;;;;;;10536980;28;20036;-74
2023/11/13 11:49:32;;;;;;;2.28;0.95;;;;;;;;;;10552335;27;20040;-74
2023/11/13 11:54:38;;;;;;;5.38;1.05;;;;;;;;;;10555977;27;20044;-74
2023/11/13 11:59:45;;;;;;;4.13;1.17;;;;;;;;;;10543396;28;20043;-74
2023/11/13 12:04:49;;;;;;;3.63;1.23;;;;;;;;;;10538442;27;20047;-74
2023/11/13 12:09:56;;;;;;;5.90;1.20;;;;;;;;;;10522736;28;20043;-74
2023/11/13 12:15:02;;;;;;;3.80;1.25;;;;;;;;;;10527279;27;20046;-75
2023/11/13 12:20:09;;;;;;;5.05;1.30;;;;;;;;;;10540771;27;20126;-73
2023/11/13 12:25:24;;;;;;;2.63;1.30;;;;;;;;;;10535535;27;20151;-74
2023/11/13 12:30:34;;;;;;;2.10;0.90;;;;;;;;;;10542127;27;20799;-74
2023/11/13 12:35:42;;;;;;;5.80;0.85;;;;;;;;;;10527812;28;20048;-75
2023/11/13 12:40:46;;;;;;;1.27;0.98;;;;;;;;;;10543687;27;20537;-75
2023/11/13 12:45:55;;;;;;;2.28;0.80;;;;;;;;;;10535495;28;20074;-74
2023/11/13 12:51:06;;;;;;;2.65;1.15;;;;;;;;;;10533114;27;20036;-74
2023/11/13 12:56:11;;;;;;;4.32;1.08;;;;;;;;;;10528847;27;20112;-75
2023/11/13 13:01:18;;;;;;;2.10;0.93;;;;;;;;;;10519183;28;20048;-74
2023/11/13 13:06:23;;;;;;;2.78;0.98;;;;;;;;;;10533483;28;20485;-75
2023/11/13 13:11:35;;;;;;;1.55;0.80;;;;;;;;;;10521608;28;20063;-75
2023/11/13 13:16:40;;;;;;;1.10;0.85;;;;;;;;;;10542656;27;20150;-74
2023/11/13 13:21:45;;;;;;;3.05;1.00;;;;;;;;;;10531754;28;20553;-75
2023/11/13 13:26:48;;;;;;;1.60;0.73;;;;;;;;;;10518906;28;20059;-74
2023/11/13 13:31:56;;;;;;;1.33;0.87;;;;;;;;;;10531676;27;20052;-74
2023/11/13 13:37:00;;;;;;;2.45;1.23;;;;;;;;;;10533025;28;20507;-74
2023/11/13 13:42:17;;;;;;;5.78;1.13;;;;;;;;;;10516877;28;20383;-74
2023/11/13 13:47:23;;;;;;;4.43;1.85;;;;;;;;;;10530046;28;20043;-74
2023/11/13 13:52:30;;;;;;;7.00;1.10;;;;;;;;;;10528675;28;20043;-75
2023/11/13 13:57:36;;;;;;;1.95;0.90;;;;;;;;;;10514388;28;20481;-75
2023/11/13 14:02:49;;;;;;;5.85;1.27;;;;;;;;;;10529596;28;20130;-75
2023/11/13 14:07:54;;;;;;;1.80;0.95;;;;;;;;;;10510266;28;20357;-75
2023/11/13 14:12:59;;;;;;;1.20;0.70;;;;;;;;;;10537287;28;20147;-74
2023/11/13 14:18:11;;;;;;;3.33;1.48;;;;;;;;;;10499745;28;20051;-76
2023/11/13 14:23:16;;;;;;;1.55;1.05;;;;;;;;;;10536416;28;20506;-74
2023/11/13 14:28:21;;;;;;;2.80;1.30;;;;;;;;;;10533247;28;20413;-75
2023/11/13 14:33:29;;;;;;;3.17;1.02;;;;;;;;;;10518882;28;20040;-74
2023/11/13 14:38:43;;;;;;;1.90;0.82;;;;;;;;;;10530048;28;20047;-75
2023/11/13 14:43:51;;;;;;;2.88;1.15;;;;;;;;;;10532703;28;20485;-75
2023/11/13 14:49:02;;;;;;;3.42;1.73;;;;;;;;;;10535991;28;20042;-75
2023/11/13 14:54:06;;;;;;;2.55;1.08;;;;;;;;;;10542137;27;20088;-74
2023/11/13 14:59:12;;;;;;;2.33;1.00;;;;;;;;;;10536845;28;20070;-74
2023/11/13 15:04:23;;;;;;;4.93;1.70;;;;;;;;;;10542982;28;20078;-75
2023/11/13 15:09:30;;;;;;;4.22;1.52;;;;;;;;;;10539781;28;20116;-74
2023/11/13 15:14:40;;;;;;;3.88;1.13;;;;;;;;;;10534027;28;20040;-76
2023/11/13 15:19:49;;;;;;;1.87;1.00;;;;;;;;;;10540730;27;20044;-75
2023/11/13 15:24:55;;;;;;;4.13;1.63;;;;;;;;;;10531529;28;20130;-75
2023/11/13 15:30:00;;;;;;;1.60;0.93;;;;;;;;;;10507361;27;20194;-74
2023/11/13 15:35:11;;;;;;;3.63;1.20;;;;;;;;;;10538522;28;20051;-75
2023/11/13 15:40:16;;;;;;;3.25;1.60;;;;;;;;;;10534719;27;20507;-75
2023/11/13 15:45:24;;;;;;;5.47;1.75;;;;;;;;;;10517968;28;20126;-75
2023/11/13 15:50:37;;;;;;;5.55;1.80;;;;;;;;;;10543041;27;20054;-75
2023/11/13 15:55:44;;;;;;;1.98;1.00;;;;;;;;;;10528208;28;20421;-75
2023/11/13 16:00:52;;;;;;;2.58;1.30;;;;;;;;;;10530372;27;20036;-74
2023/11/13 16:06:00;;;;;;;2.33;1.42;;;;;;;;;;10512161;27;20051;-74
2023/11/13 16:11:04;;;;;;;2.58;1.13;;;;;;;;;;10538713;28;20058;-74
2023/11/13 16:16:09;;;;;;;2.38;1.17;;;;;;;;;;10514379;28;20134;-75
2023/11/13 16:21:19;;;;;;;3.67;1.10;;;;;;;;;;10512826;28;20112;-73
2023/11/13 16:26:24;;;;;;;3.35;0.75;;;;;;;;;;10531672;28;20040;-72
2023/11/13 16:31:32;;;;;;;1.55;1.08;;;;;;;;;;10533338;28;20465;-74
2023/11/13 16:36:43;;;;;;;0.82;0.68;;;;;;;;;;10522310;27;20059;-75
2023/11/13 16:41:49;;;;;;;1.98;0.80;;;;;;;;;;10520130;27;20108;-75
2023/11/13 16:46:53;;;;;;;2.08;0.77;;;;;;;;;;10527474;28;20512;-74
2023/11/13 16:52:02;;;;;;;2.00;1.10;;;;;;;;;;10527944;27;20135;-74
2023/11/13 16:57:11;;;;;;;1.00;0.73;;;;;;;;;;10530604;28;20047;-74
2023/11/13 17:02:14;;;;;;;2.03;1.00;;;;;;;;;;10533716;28;20121;-74
2023/11/13 17:07:20;;;;;;;2.25;1.17;;;;;;;;;;10513528;27;20139;-74
2023/11/13 17:12:32;;;;;;;0.75;0.57;;;;;;;;;;10521785;28;20040;-74
2023/11/13 17:17:36;;;;;;;2.35;1.15;;;;;;;;;;10551759;27;20106;-74
2023/11/13 17:22:44;;;;;;;4.28;1.73;;;;;;;;;;10529662;28;20063;-76
2023/11/13 17:27:55;;;;;;;4.47;1.95;;;;;;;;;;10538530;28;20044;-76
2023/11/13 17:33:01;;;;;;;4.35;1.80;;;;;;;;;;10533551;28;20075;-75
2023/11/13 17:38:12;;;;;;;2.22;1.38;;;;;;;;;;10550002;27;20127;-75
2023/11/13 17:43:21;;;;;;;1.55;0.85;;;;;;;;;;10545361;28;20048;-74
2023/11/13 17:48:33;;;;;;;2.42;0.90;;;;;;;;;;10563168;28;20085;-75
2023/11/13 17:53:40;;;;;;;0.85;0.65;;;;;;;;;;10547193;28;20052;-75
2023/11/13 17:58:45;;;;;;;1.17;0.75;;;;;;;;;;10537350;28;20048;-76
2023/11/13 18:04:00;;;;;;;3.03;0.93;;;;;;;;;;10542541;28;20044;-73
2023/11/13 18:09:10;;;;;;;1.48;0.80;;;;;;;;;;10568013;28;20027;-75
2023/11/13 18:14:18;;;;;;;0.98;0.70;;;;;;;;;;10567645;27;20052;-76
2023/11/13 18:19:38;;;;;;;2.47;0.97;;;;;;;;;;10566266;27;20521;-75
2023/11/13 18:30:27;;;;;;;1.75;0.85;;;;;;;;;;10565242;27;20070;-74
2023/11/13 18:41:00;;;;;;;0.65;0.60;;;;;;;;;;10569086;27;20054;-75
2023/11/13 18:46:06;;;;;;;1.95;0.80;;;;;;;;;;10573062;27;20047;-75
2023/11/13 18:51:10;;;;;;;0.60;0.60;;;;;;;;;;10568813;27;20036;-74
2023/11/13 18:56:43;;;;;;;0.95;0.60;;;;;;;;;;10584009;27;20074;-73
2023/11/13 19:01:56;;;;;;;0.77;0.70;;;;;;;;;;10561907;27;20121;-75
2023/11/13 19:07:00;;;;;;;1.15;0.55;;;;;;;;;;10565294;27;20036;-73
2023/11/13 19:12:14;;;;;;;1.65;0.70;;;;;;;;;;10572733;27;20071;-74
2023/11/13 19:17:20;;;;;;;0.65;0.65;;;;;;;;;;10560160;27;20165;-76
2023/11/13 19:22:29;;;;;;;0.80;0.60;;;;;;;;;;10567783;27;20078;-75
2023/11/13 19:27:42;;;;;;;0.50;0.50;;;;;;;;;;10552614;27;20071;-76
2023/11/13 19:32:46;;;;;;;1.83;0.60;;;;;;;;;;10561595;28;20455;-75
2023/11/13 19:38:05;;;;;;;0.52;0.52;;;;;;;;;;10581319;27;20058;-75
2023/11/13 19:43:23;;;;;;;1.95;0.40;;;;;;;;;;10545984;27;20054;-75
2023/11/13 19:48:40;;;;;;;3.28;0.80;;;;;;;;;;10561626;28;20396;-74
2023/11/13 19:53:49;;;;;;;0.90;0.70;;;;;;;;;;10569624;27;20039;-75
2023/11/13 19:58:54;;;;;;;0.60;0.40;;;;;;;;;;10555233;27;20632;-74
2023/11/13 20:04:00;;;;;;;2.08;0.57;;;;;;;;;;10559673;27;20147;-74
2023/11/13 20:09:14;;;;;;;1.08;0.63;;;;;;;;;;10558269;27;20048;-75
2023/11/13 20:14:17;;;;;;;;;;;;;;;;;;10566274;27;20046;-75
2023/11/13 20:19:23;;;;;;;0.57;0.40;;;;;;;;;;10551298;27;19923;-74
2023/11/13 20:24:26;;;;;;;0.57;0.40;;;;;;;;;;10562599;27;20125;-74
2023/11/13 20:29:43;;;;;;;0.45;0.32;;;;;;;;;;10533353;27;20280;-74
2023/11/13 20:34:59;;;;;;;1.88;0.60;;;;;;;;;;10552534;27;20460;-74
2023/11/13 20:40:05;;;;;;;0.30;0.30;;;;;;;;;;10551138;27;20039;-74
2023/11/13 20:45:14;;;;;;;0.30;0.30;;;;;;;;;;10546919;27;20481;-74
2023/11/13 20:50:22;;;;;;;0.88;0.50;;;;;;;;;;10539081;28;20486;-76
2023/11/13 20:55:38;;;;;;;0.63;0.32;;;;;;;;;;10515117;28;20062;-75
2023/11/13 21:00:47;;;;;;;0.30;0.30;;;;;;;;;;10551893;27;20055;-74
2023/11/13 21:11:26;;;;;;;0.68;0.35;;;;;;;;;;10543400;28;20048;-74
2023/11/13 21:16:34;;;;;;;1.10;0.40;;;;;;;;;;10532586;27;20035;-74
2023/11/13 21:21:48;;;;;;;0.30;0.30;;;;;;;;;;10553507;27;20039;-74
2023/11/13 21:26:54;;;;;;;1.50;0.60;;;;;;;;;;10548851;28;20584;-74
2023/11/13 21:32:06;;;;;;;0.73;0.38;;;;;;;;;;10544813;27;20392;-76
2023/11/13 21:37:27;;;;;;;1.05;0.40;;;;;;;;;;10543440;27;20398;-74
2023/11/13 21:42:31;;;;;;;0.20;0.20;;;;;;;;;;10553427;28;20159;-74
2023/11/13 21:47:34;;;;;;;1.60;0.40;;;;;;;;;;10547406;28;20565;-75
2023/11/13 21:52:43;;;;;;;1.00;0.60;;;;;;;;;;10532203;28;20529;-75
2023/11/13 21:57:54;;;;;;;0.63;0.47;;;;;;;;;;10566546;28;20046;-75
2023/11/13 22:02:59;;;;;;;0.40;0.30;;;;;;;;;;10575756;28;20046;-74
2023/11/13 22:08:04;;;;;;;0.68;0.45;;;;;;;;;;10561535;28;20481;-76
2023/11/13 22:18:45;;;;;;;2.08;0.50;;;;;;;;;;10536496;28;20042;-74
2023/11/13 22:23:50;;;;;;;0.68;0.50;;;;;;;;;;10531670;28;20139;-74
2023/11/13 22:28:53;;;;;;;0.77;0.50;;;;;;;;;;10549368;28;20040;-74
2023/11/13 22:33:59;;;;;;;1.92;0.55;;;;;;;;;;10527197;28;20496;-73
2023/11/13 22:39:05;;;;;;;3.72;0.60;;;;;;;;;;10520979;28;20040;-74
2023/11/13 22:44:09;;;;;;;0.98;0.50;;;;;;;;;;10541306;28;20571;-73
2023/11/13 22:49:24;;;;;;;0.77;0.65;;;;;;;;;;10524649;28;20040;-75
2023/11/13 22:54:55;;;;;;;1.52;0.70;;;;;;;;;;10528273;28;20044;-74
2023/11/13 23:00:04;;;;;;;0.73;0.65;;;;;;;;;;10518907;28;20096;-73
2023/11/13 23:05:20;;;;;;;0.95;0.65;;;;;;;;;;10531013;27;20127;-74
2023/11/13 23:10:36;;;;;;;0.65;0.63;;;;;;;;;;10547379;27;20032;-74
2023/11/13 23:15:40;;;;;;;0.75;0.50;;;;;;;;;;10553068;27;20047;-75
2023/11/13 23:20:44;;;;;;;0.70;0.70;;;;;;;;;;10543727;28;20036;-75
2023/11/13 23:25:53;;;;;;;1.70;0.60;;;;;;;;;;10538353;28;20182;-74
2023/11/13 23:30:59;;;;;;;1.23;0.50;;;;;;;;;;10542495;28;20062;-74
2023/11/13 23:36:03;;;;;;;0.95;0.50;;;;;;;;;;10537630;27;20488;-73
2023/11/13 23:41:16;;;;;;;1.42;0.60;;;;;;;;;;10540627;28;20143;-74
2023/11/13 23:46:22;;;;;;;0.70;0.55;;;;;;;;;;10538138;28;20059;-75
2023/11/13 23:51:27;;;;;;;1.55;0.55;;;;;;;;;;10538960;28;20505;-74
2023/11/13 23:56:31;;;;;;;0.55;0.55;;;;;;;;;;10517857;28;20139;-75
